createdAt,value
2023-06-10T00:01:39.090Z,3.00
2023-06-10T00:04:24.418Z,3.08
2023-06-10T00:07:09.794Z,2.92
2023-06-10T00:09:56.610Z,2.85
2023-06-10T00:12:43.470Z,3.10
2023-06-10T02:46:46.782Z,2.60
2023-06-10T02:49:32.591Z,2.97
2023-06-10T02:52:19.335Z,2.58
2023-06-10T02:55:05.111Z,2.63
2023-06-10T02:57:50.272Z,2.60
2023-06-10T03:48:05.621Z,2.70
2023-06-10T03:51:00.475Z,2.43
2023-06-10T03:53:46.102Z,2.65
2023-06-10T03:56:32.153Z,2.45
2023-06-10T03:59:17.828Z,2.80
2023-06-10T04:46:09.868Z,2.85
2023-06-10T04:48:56.093Z,2.80
2023-06-10T04:51:41.305Z,2.87
2023-06-10T04:54:27.404Z,2.65
2023-06-10T04:57:12.962Z,3.20
2023-06-10T04:59:58.134Z,3.00
2023-06-10T05:02:44.074Z,2.70
2023-06-10T05:05:29.438Z,2.80
2023-06-10T05:08:14.518Z,2.88
2023-06-10T05:10:59.843Z,2.88
2023-06-10T05:13:45.402Z,3.25
2023-06-10T05:16:30.506Z,2.80
2023-06-10T05:19:17.385Z,3.00
2023-06-10T05:22:03.489Z,2.80
2023-06-10T05:24:48.279Z,3.00
2023-06-10T05:27:33.862Z,2.83
2023-06-10T05:30:19.941Z,2.78
2023-06-10T05:33:05.579Z,3.03
2023-06-10T05:35:51.032Z,3.17
2023-06-10T05:38:36.369Z,3.10
2023-06-10T05:41:23.150Z,3.10
2023-06-10T05:44:08.425Z,3.08
2023-06-10T05:46:53.843Z,3.43
2023-06-10T05:49:39.338Z,3.30
2023-06-10T05:52:24.836Z,3.45
2023-06-10T05:55:11.870Z,3.33
2023-06-10T05:58:01.407Z,3.50
2023-06-10T06:00:46.706Z,3.30
2023-06-10T06:03:32.350Z,3.20
2023-06-10T06:06:17.768Z,4.32
2023-06-10T06:09:04.078Z,3.42
2023-06-10T06:11:49.197Z,3.47
2023-06-10T06:14:37.884Z,3.50
2023-06-10T06:17:22.738Z,3.55
2023-06-10T06:20:08.339Z,3.33
2023-06-10T06:22:53.398Z,3.90
2023-06-10T06:25:40.084Z,3.47
2023-06-10T06:28:30.240Z,3.70
2023-06-10T06:31:15.800Z,3.70
2023-06-10T06:34:01.495Z,3.40
2023-06-10T06:36:46.689Z,4.00
2023-06-10T06:39:31.693Z,3.85
2023-06-10T06:42:17.564Z,3.90
2023-06-10T06:45:15.390Z,3.55
2023-06-10T06:48:01.403Z,3.97
2023-06-10T06:50:47.706Z,3.80
2023-06-10T06:53:32.993Z,3.60
2023-06-10T06:56:20.174Z,4.13
2023-06-10T06:59:06.013Z,3.95
2023-06-10T07:01:51.413Z,3.72
2023-06-10T07:04:36.649Z,3.53
2023-06-10T07:07:21.826Z,4.38
2023-06-10T07:10:07.196Z,4.10
2023-06-10T07:12:52.346Z,4.55
2023-06-10T07:15:37.481Z,3.90
2023-06-10T07:18:22.880Z,4.10
2023-06-10T07:21:07.987Z,4.45
2023-06-10T07:23:54.960Z,3.83
2023-06-10T07:26:40.191Z,4.50
2023-06-10T07:29:25.541Z,3.83
2023-06-10T07:32:10.929Z,4.50
2023-06-10T07:34:56.168Z,4.15
2023-06-10T07:37:41.439Z,4.03
2023-06-10T07:40:26.924Z,4.07
2023-06-10T07:43:13.676Z,3.97
2023-06-10T07:45:58.837Z,4.00
2023-06-10T07:48:44.320Z,4.25
2023-06-10T07:51:29.796Z,4.53
2023-06-10T07:54:17.441Z,4.40
2023-06-10T07:57:03.993Z,4.43
2023-06-10T07:59:49.944Z,4.47
2023-06-10T08:02:35.399Z,4.40
2023-06-10T08:05:21.879Z,4.43
2023-06-10T08:08:07.173Z,4.32
2023-06-10T08:10:52.222Z,4.32
2023-06-10T08:13:37.637Z,4.20
2023-06-10T08:16:22.778Z,4.47
2023-06-10T08:19:10.542Z,4.10
2023-06-10T08:21:55.739Z,4.38
2023-06-10T08:24:40.804Z,4.50
2023-06-10T08:27:26.787Z,4.13
2023-06-10T08:30:14.215Z,4.25
2023-06-10T08:33:00.664Z,4.47
2023-06-10T08:35:45.773Z,4.53
2023-06-10T08:38:30.703Z,4.50
2023-06-10T08:41:17.951Z,4.32
2023-06-10T08:44:10.676Z,4.20
2023-06-10T08:47:04.970Z,4.27
2023-06-10T08:49:50.269Z,4.53
2023-06-10T08:52:36.614Z,4.68
2023-06-10T08:55:32.362Z,4.57
2023-06-10T08:58:18.338Z,4.25
2023-06-10T09:01:04.281Z,4.60
2023-06-10T09:03:50.228Z,3.92
2023-06-10T09:06:35.588Z,4.00
2023-06-10T09:09:21.414Z,4.25
2023-06-10T09:12:07.361Z,4.55
2023-06-10T09:14:52.886Z,4.43
2023-06-10T09:17:39.002Z,4.25
2023-06-10T09:20:24.362Z,4.10
2023-06-10T09:23:09.918Z,4.07
2023-06-10T09:26:01.333Z,3.92
2023-06-10T09:28:51.084Z,4.10
2023-06-10T09:31:36.866Z,3.80
2023-06-10T09:34:26.633Z,3.78
2023-06-10T09:37:14.572Z,3.88
2023-06-10T09:40:04.485Z,3.78
2023-06-10T09:43:00.228Z,4.30
2023-06-10T09:45:45.576Z,3.92
2023-06-10T09:48:30.994Z,4.05
2023-06-10T09:51:18.285Z,3.60
2023-06-10T09:54:04.290Z,3.85
2023-06-10T09:56:51.157Z,4.00
2023-06-10T09:59:38.362Z,3.97
2023-06-10T10:02:23.558Z,4.00
2023-06-10T10:05:09.725Z,4.05
2023-06-10T10:07:57.586Z,3.78
2023-06-10T10:10:42.943Z,3.83
2023-06-10T10:13:30.271Z,3.97
2023-06-10T10:16:19.394Z,3.50
2023-06-10T10:19:09.674Z,3.42
2023-06-10T10:21:56.129Z,3.70
2023-06-10T10:24:50.122Z,3.53
2023-06-10T10:27:36.935Z,3.35
2023-06-10T10:30:22.269Z,3.53
2023-06-10T10:33:13.535Z,3.80
2023-06-10T10:35:59.283Z,3.70
2023-06-10T10:38:47.515Z,3.60
2023-06-10T10:41:34.468Z,3.70
2023-06-10T10:44:20.311Z,3.58
2023-06-10T10:47:09.159Z,3.35
2023-06-10T10:49:54.967Z,3.83
2023-06-10T10:52:58.831Z,3.47
2023-06-10T10:55:58.638Z,3.70
2023-06-10T10:58:44.432Z,3.58
2023-06-10T11:01:40.699Z,3.50
2023-06-10T11:04:28.171Z,3.58
2023-06-10T11:07:16.776Z,3.33
2023-06-10T11:10:12.820Z,3.80
2023-06-10T11:12:58.468Z,3.05
2023-06-10T11:15:48.320Z,3.25
2023-06-10T11:18:40.353Z,3.10
2023-06-10T11:21:28.789Z,3.00
2023-06-10T11:24:17.759Z,3.60
2023-06-10T11:27:19.647Z,3.13
2023-06-10T11:30:05.273Z,3.10
2023-06-10T11:32:53.202Z,3.50
2023-06-10T11:35:38.483Z,3.00
2023-06-10T11:38:23.938Z,3.03
2023-06-10T11:41:09.459Z,3.50
2023-06-10T11:43:56.995Z,3.00
2023-06-10T11:46:44.115Z,3.28
2023-06-10T11:49:29.914Z,3.20
2023-06-10T11:52:14.817Z,3.20
2023-06-10T11:55:00.171Z,3.45
2023-06-10T11:57:45.324Z,3.17
2023-06-10T12:00:30.268Z,3.00
2023-06-10T12:03:16.090Z,3.00
2023-06-10T12:06:02.307Z,3.20
2023-06-10T12:08:47.903Z,3.00
2023-06-10T12:11:34.050Z,2.95
2023-06-10T12:14:38.071Z,3.20
2023-06-10T12:17:25.129Z,3.13
2023-06-10T12:20:25.181Z,3.30
2023-06-10T12:23:10.924Z,2.90
2023-06-10T12:25:57.853Z,3.20
2023-06-10T12:28:52.113Z,3.00
2023-06-10T12:31:53.572Z,3.00
2023-06-10T12:34:40.051Z,3.03
2023-06-10T12:37:25.532Z,3.08
2023-06-10T12:40:11.994Z,2.78
2023-06-10T12:42:57.405Z,2.80
2023-06-10T12:45:45.905Z,3.10
2023-06-10T12:48:31.486Z,2.90
2023-06-10T12:51:17.278Z,2.60
2023-06-10T12:54:02.769Z,3.03
2023-06-10T12:56:47.827Z,2.85
2023-06-10T12:59:34.589Z,3.13
2023-06-10T13:02:25.673Z,2.95
2023-06-10T13:05:12.948Z,2.90
2023-06-10T13:08:00.742Z,2.88
2023-06-10T13:10:46.373Z,2.83
2023-06-10T13:13:31.529Z,3.00
2023-06-10T13:16:17.269Z,2.80
2023-06-10T13:19:03.793Z,2.90
2023-06-10T13:21:49.271Z,2.60
2023-06-10T13:24:34.451Z,2.85
2023-06-10T13:27:20.349Z,2.60
2023-06-10T13:30:07.234Z,2.65
2023-06-10T13:32:53.244Z,2.60
2023-06-10T13:35:39.325Z,2.90
2023-06-10T13:38:24.354Z,2.70
2023-06-10T13:41:11.766Z,2.87
2023-06-10T13:43:57.373Z,2.70
2023-06-10T13:46:43.593Z,2.55
2023-06-10T13:49:29.663Z,2.60
2023-06-10T13:52:15.121Z,2.63
2023-06-10T13:55:00.428Z,2.57
2023-06-10T13:57:45.848Z,2.63
2023-06-10T14:00:31.253Z,2.90
2023-06-10T14:03:16.723Z,2.38
2023-06-10T14:06:02.879Z,2.53
2023-06-10T14:08:50.694Z,2.50
2023-06-10T14:11:36.387Z,2.63
2023-06-10T14:14:21.251Z,2.60
2023-06-10T14:17:06.996Z,2.53
2023-06-10T14:19:52.030Z,2.78
2023-06-10T14:22:37.506Z,2.60
2023-06-10T14:25:23.816Z,2.47
2023-06-10T14:28:09.224Z,2.50
2023-06-10T14:30:54.498Z,2.40
2023-06-10T14:33:40.868Z,2.42
2023-06-10T14:36:26.096Z,2.40
2023-06-10T14:39:11.386Z,2.78
2023-06-10T14:41:56.826Z,2.63
2023-06-10T14:44:42.065Z,2.60
2023-06-10T14:47:27.522Z,2.42
2023-06-10T14:50:12.967Z,2.30
2023-06-10T14:52:58.473Z,2.28
2023-06-10T14:55:43.476Z,2.67
2023-06-10T14:58:28.761Z,2.50
2023-06-10T15:01:14.095Z,2.28
2023-06-10T15:03:59.530Z,2.40
2023-06-10T15:06:45.003Z,2.30
2023-06-10T15:09:30.819Z,2.33
2023-06-10T15:12:15.732Z,2.53
2023-06-10T15:15:00.856Z,2.20
2023-06-10T15:17:46.860Z,2.40
2023-06-10T15:20:32.626Z,2.45
2023-06-10T15:23:18.182Z,2.42
2023-06-10T15:26:03.828Z,2.60
2023-06-10T15:28:49.388Z,2.22
2023-06-10T15:31:35.098Z,2.67
2023-06-10T15:34:20.379Z,2.50
2023-06-10T15:37:06.067Z,2.20
2023-06-10T15:39:51.127Z,2.20
2023-06-10T15:42:36.921Z,2.25
2023-06-10T15:45:22.306Z,2.47
2023-06-10T15:48:09.407Z,2.40
2023-06-10T15:50:54.702Z,2.20
2023-06-10T15:53:39.975Z,2.22
2023-06-10T15:56:26.161Z,2.20
2023-06-10T15:59:12.870Z,2.10
2023-06-10T16:01:59.199Z,2.20
2023-06-10T16:04:44.105Z,2.50
2023-06-10T16:07:29.412Z,2.58
2023-06-10T16:10:16.165Z,2.53
2023-06-10T16:13:01.493Z,2.50
2023-06-10T16:15:46.487Z,2.05
2023-06-10T16:18:32.290Z,2.35
2023-06-10T16:21:17.408Z,2.35
2023-06-10T16:24:03.942Z,2.55
2023-06-10T16:26:49.605Z,2.40
2023-06-10T16:29:34.882Z,2.08
2023-06-10T16:32:20.378Z,2.25
2023-06-10T16:35:06.263Z,2.08
2023-06-10T16:37:51.260Z,2.13
2023-06-10T16:40:37.144Z,2.57
2023-06-10T16:43:24.020Z,2.15
2023-06-10T16:46:09.692Z,2.28
2023-06-10T16:48:54.980Z,2.20
2023-06-10T16:51:40.610Z,2.10
2023-06-10T16:54:25.901Z,2.40
2023-06-10T16:57:11.630Z,2.38
2023-06-10T16:59:56.880Z,2.40
2023-06-10T17:02:42.218Z,2.15
2023-06-10T17:05:28.952Z,2.22
2023-06-10T17:08:14.308Z,2.10
2023-06-10T17:10:59.785Z,2.00
2023-06-10T17:13:46.084Z,1.90
2023-06-10T17:16:31.900Z,2.05
2023-06-10T17:19:17.352Z,2.28
2023-06-10T17:22:03.126Z,1.93
2023-06-10T17:24:48.626Z,2.10
2023-06-10T17:27:33.839Z,2.00
2023-06-10T17:30:19.647Z,2.38
2023-06-10T17:33:05.023Z,2.38
2023-06-10T17:35:51.165Z,1.90
2023-06-10T17:38:36.834Z,1.90
2023-06-10T17:41:22.090Z,2.10
2023-06-10T17:44:07.491Z,2.00
2023-06-10T17:46:52.878Z,1.95
2023-06-10T17:49:38.188Z,2.13
2023-06-10T17:52:23.653Z,2.20
2023-06-10T17:55:09.427Z,2.10
2023-06-10T17:57:55.151Z,2.08
2023-06-10T18:16:30.506Z,2.03
2023-06-10T18:19:16.576Z,2.20
2023-06-10T18:22:02.065Z,2.30
2023-06-10T18:24:47.482Z,2.33
2023-06-10T18:27:33.781Z,2.13
2023-06-10T18:30:19.329Z,2.00
2023-06-10T18:33:04.466Z,2.03
2023-06-10T18:35:49.903Z,2.30
2023-06-10T18:38:35.261Z,2.10
2023-06-10T18:41:20.416Z,1.77
2023-06-10T18:44:06.125Z,2.17
2023-06-10T18:46:51.446Z,2.10
2023-06-10T18:49:36.644Z,2.30
2023-06-10T18:52:22.119Z,2.22
2023-06-10T18:55:07.958Z,1.90
2023-06-10T18:57:53.226Z,2.00
2023-06-10T19:00:38.220Z,1.67
2023-06-10T19:03:23.930Z,2.55
2023-06-10T19:06:09.337Z,2.00
2023-06-10T19:08:55.091Z,1.80
2023-06-10T19:11:40.523Z,2.10
2023-06-10T19:14:25.925Z,2.00
2023-06-10T19:17:11.486Z,2.20
2023-06-10T19:19:56.880Z,2.10
2023-06-10T19:22:41.978Z,2.22
2023-06-10T19:25:27.316Z,2.03
2023-06-10T19:28:13.549Z,1.97
2023-06-10T19:30:58.804Z,1.80
2023-06-10T19:33:44.256Z,2.00
2023-06-10T19:36:29.801Z,1.92
2023-06-10T19:39:14.865Z,1.90
2023-06-10T19:42:00.694Z,1.93
2023-06-10T19:44:45.922Z,2.10
2023-06-10T19:47:31.471Z,2.00
2023-06-10T19:50:16.806Z,2.00
2023-06-10T19:53:02.049Z,1.95
2023-06-10T19:55:47.827Z,2.00
2023-06-10T19:58:33.226Z,1.95
2023-06-10T20:01:18.664Z,2.08
2023-06-10T20:04:05.763Z,1.65
2023-06-10T20:06:51.682Z,1.88
2023-06-10T20:09:37.014Z,2.30
2023-06-10T20:12:22.044Z,2.00
2023-06-10T20:15:08.035Z,1.70
2023-06-10T20:17:53.725Z,1.92
2023-06-10T20:20:38.605Z,2.10
2023-06-10T20:23:23.631Z,1.70
2023-06-10T20:26:09.010Z,1.80
2023-06-10T20:28:54.457Z,2.28
2023-06-10T20:31:39.948Z,1.92
2023-06-10T20:34:24.806Z,1.80
2023-06-10T20:37:10.680Z,1.80
2023-06-10T20:39:56.028Z,1.83
2023-06-10T20:42:41.609Z,1.73
2023-06-10T20:45:26.535Z,1.80
2023-06-10T20:48:11.852Z,1.80
2023-06-10T20:50:57.272Z,1.73
2023-06-10T20:53:42.749Z,1.65
2023-06-10T20:56:28.258Z,1.80
2023-06-10T20:59:13.958Z,1.75
2023-06-10T21:47:36.881Z,1.60
2023-06-10T21:50:22.138Z,1.80
2023-06-10T21:53:07.182Z,1.48
2023-06-10T21:55:52.497Z,1.95
2023-06-10T21:58:38.228Z,1.73
2023-06-10T22:01:23.481Z,1.83
2023-06-10T22:04:09.023Z,1.70
2023-06-10T22:06:54.796Z,1.80
2023-06-10T22:09:47.634Z,1.73
2023-06-10T22:12:32.731Z,1.80
2023-06-10T23:02:33.665Z,1.50
2023-06-10T23:05:19.334Z,1.50
2023-06-10T23:08:04.559Z,1.60
2023-06-10T23:10:50.085Z,1.60
2023-06-10T23:13:35.620Z,1.50
